This is the latest recevied weather packets stored in our database for station/object KJ5SC. If no packets are shown the sender has not sent any weather packets the latest 10 day(s).
| Time | Temp. | Humidity | Pressure | Rain* | Wind** | Luminosity | Snow |
|---|---|---|---|---|---|---|---|
| 1787439605 | 33.33° C | 50% | 1017.1 hPa | 0 mm | - | 66 W/m² | - |
| 1787439301 | 32.78° C | 49% | 1017.1 hPa | 0 mm | - | 67 W/m² | - |
| 1787438997 | 32.22° C | 52% | 1017.1 hPa | 0 mm | - | 79 W/m² | - |
| 1787438697 | 32.22° C | 54% | 1017.1 hPa | 0 mm | - | 82 W/m² | - |
| 1787438396 | 31.67° C | 55% | 1017.5 hPa | 0 mm | - | 160 W/m² | - |
| 1787438091 | 31.67° C | 54% | 1017.5 hPa | 0 mm | - | 73 W/m² | - |
| 1787437787 | 30.56° C | 54% | 1017.5 hPa | 0 mm | - | 144 W/m² | - |
| 1787437483 | 30.56° C | 57% | 1017.5 hPa | 0 mm | - | 102 W/m² | - |
| 1787437179 | 30° C | 59% | 1017.5 hPa | 0 mm | - | 69 W/m² | - |
| 1787436875 | 30° C | 59% | 1017.5 hPa | 0 mm | - | 59 W/m² | - |
| 1787436572 | 29.44° C | 59% | 1017.5 hPa | 0 mm | - | 63 W/m² | - |
| 1787436271 | 29.44° C | 59% | 1017.5 hPa | 0 mm | - | 48 W/m² | - |
| 1787435966 | 30° C | 59% | 1017.5 hPa | 0 mm | - | 39 W/m² | - |
| 1787435662 | 30° C | 60% | 1018.1 hPa | 0 mm | - | 35 W/m² | - |
| 1787435358 | 30° C | 58% | 1018.1 hPa | 0 mm | - | 34 W/m² | - |
| 1787435054 | 30.56° C | 57% | 1018.1 hPa | 0 mm | - | 35 W/m² | - |
| 1787434750 | 30.56° C | 57% | 1018.1 hPa | 0 mm | - | 35 W/m² | - |
| 1787434446 | 30.56° C | 57% | 1018.1 hPa | 0 mm | - | 34 W/m² | - |
| 1787434141 | 31.11° C | 57% | 1018.1 hPa | 0 mm | - | 38 W/m² | - |
| 1787433837 | 32.22° C | 56% | 1017.6 hPa | 0 mm | - | 35 W/m² | - |
| 1787433532 | 32.22° C | 54% | 1017.6 hPa | 0 mm | - | 50 W/m² | - |
| 1787433227 | 32.78° C | 53% | 1017.6 hPa | 0 mm | - | 68 W/m² | - |
| 1787432924 | 33.89° C | 48% | 1017.6 hPa | 0 mm | - | 89 W/m² | - |
| 1787432620 | 36.11° C | 43% | 1017.6 hPa | 0 mm | - | 69 W/m² | - |
| 1787432318 | 37.78° C | 40% | - | 0 mm | - | - | - |
* Rain latest hour (hover to see other rain measurements)
** Current wind speed in m/s (hover to see current wind gust speed)